createdAt,value
2023-02-27T00:00:16.114Z,92194.72
2023-02-27T00:02:46.580Z,92198.66
2023-02-27T00:05:17.158Z,92200.31
2023-02-27T00:07:45.923Z,92200.00
2023-02-27T00:10:15.630Z,92212.16
2023-02-27T00:12:44.921Z,92208.44
2023-02-27T00:15:16.019Z,92206.13
2023-02-27T00:17:45.437Z,92212.91
2023-02-27T00:20:18.978Z,92209.22
2023-02-27T00:22:48.089Z,92207.50
2023-02-27T00:25:17.074Z,92208.84
2023-02-27T00:27:45.859Z,92212.63
2023-02-27T00:30:16.665Z,92212.16
2023-02-27T00:32:45.618Z,92210.88
2023-02-27T00:35:14.457Z,92201.88
2023-02-27T00:37:44.277Z,92208.72
2023-02-27T00:40:14.405Z,92210.00
2023-02-27T00:42:43.047Z,92204.25
2023-02-27T00:45:12.384Z,92205.28
2023-02-27T00:47:40.850Z,92196.56
2023-02-27T00:50:11.330Z,92202.84
2023-02-27T00:52:39.878Z,92194.00
2023-02-27T00:55:11.727Z,92206.84
2023-02-27T00:57:40.627Z,92208.75
2023-02-27T01:00:11.702Z,92208.59
2023-02-27T01:02:40.499Z,92193.22
2023-02-27T01:05:10.324Z,92201.94
2023-02-27T01:07:38.947Z,92201.94
2023-02-27T01:10:12.178Z,92195.56
2023-02-27T01:12:41.609Z,92198.19
2023-02-27T01:15:12.497Z,92187.81
2023-02-27T01:17:41.157Z,92192.16
2023-02-27T01:20:12.930Z,92182.38
2023-02-27T01:22:41.773Z,92196.81
2023-02-27T01:25:12.381Z,92194.78
2023-02-27T01:27:40.885Z,92192.13
2023-02-27T01:30:12.861Z,92200.06
2023-02-27T01:32:41.441Z,92206.13
2023-02-27T01:35:10.816Z,92203.00
2023-02-27T01:37:39.904Z,92204.09
2023-02-27T01:40:11.678Z,92197.91
2023-02-27T01:42:40.094Z,92200.69
2023-02-27T01:45:33.028Z,92192.00
2023-02-27T01:48:10.639Z,92187.19
2023-02-27T01:50:44.514Z,92196.38
2023-02-27T01:53:13.248Z,92189.50
2023-02-27T01:55:43.999Z,92196.19
2023-02-27T01:58:16.039Z,92190.75
2023-02-27T02:00:44.951Z,92196.84
2023-02-27T02:03:25.278Z,92193.69
2023-02-27T02:05:56.948Z,92189.50
2023-02-27T02:08:28.808Z,92200.53
2023-02-27T02:11:00.096Z,92196.19
2023-02-27T02:13:29.511Z,92204.72
2023-02-27T02:16:15.465Z,92201.78
2023-02-27T02:18:55.850Z,92195.72
2023-02-27T02:22:14.438Z,92193.06
2023-02-27T02:25:43.666Z,92192.16
2023-02-27T02:28:33.886Z,92184.53
2023-02-27T02:31:50.389Z,92191.53
2023-02-27T02:35:25.839Z,92183.94
2023-02-27T02:38:44.531Z,92182.53
2023-02-27T02:41:21.626Z,92190.28
2023-02-27T02:44:02.018Z,92189.84
2023-02-27T02:46:37.336Z,92184.53
2023-02-27T02:49:18.001Z,92184.88
2023-02-27T02:51:52.233Z,92192.16
2023-02-27T02:54:30.264Z,92189.41
2023-02-27T02:57:06.579Z,92196.81
2023-02-27T02:59:40.524Z,92195.59
2023-02-27T03:02:12.209Z,92183.34
2023-02-27T03:04:44.319Z,92197.13
2023-02-27T03:07:18.207Z,92175.53
2023-02-27T03:09:54.073Z,92189.81
2023-02-27T03:12:25.653Z,92183.47
2023-02-27T03:15:02.547Z,92194.47
2023-02-27T03:17:42.159Z,92181.59
2023-02-27T03:20:17.232Z,92186.56
2023-02-27T03:22:49.543Z,92182.19
2023-02-27T03:25:21.118Z,92183.59
2023-02-27T03:27:54.605Z,92193.84
2023-02-27T03:30:33.031Z,92183.47
2023-02-27T03:33:09.049Z,92194.31
2023-02-27T03:35:46.717Z,92189.97
2023-02-27T03:38:25.274Z,92201.94
2023-02-27T03:41:05.331Z,92201.94
2023-02-27T03:43:47.003Z,92204.56
2023-02-27T03:46:19.372Z,92203.78
2023-02-27T03:48:48.585Z,92201.47
2023-02-27T03:51:21.323Z,92202.97
2023-02-27T03:53:56.142Z,92204.88
2023-02-27T03:56:30.739Z,92210.63
2023-02-27T03:58:59.771Z,92213.72
2023-02-27T04:01:28.974Z,92214.97
2023-02-27T04:04:02.773Z,92222.56
2023-02-27T04:06:50.341Z,92217.75
2023-02-27T04:09:28.525Z,92217.91
2023-02-27T04:12:34.774Z,92219.78
2023-02-27T04:15:17.788Z,92225.69
2023-02-27T04:17:59.066Z,92221.50
2023-02-27T04:20:44.236Z,92212.47
2023-02-27T04:23:19.483Z,92225.81
2023-02-27T04:26:04.021Z,92230.81
2023-02-27T04:28:44.171Z,92218.38
2023-02-27T04:31:21.061Z,92219.00
2023-02-27T04:33:57.749Z,92218.69
2023-02-27T04:36:32.735Z,92217.91
2023-02-27T04:39:06.713Z,92226.78
2023-02-27T04:41:40.848Z,92220.13
2023-02-27T04:44:13.199Z,92217.78
2023-02-27T04:46:45.098Z,92224.94
2023-02-27T04:49:20.322Z,92227.72
2023-02-27T04:51:54.551Z,92228.97
2023-02-27T04:54:29.699Z,92230.97
2023-02-27T04:57:03.301Z,92227.53
2023-02-27T04:59:37.566Z,92231.91
2023-02-27T05:02:13.735Z,92239.81
2023-02-27T05:04:45.175Z,92236.53
2023-02-27T05:07:19.057Z,92230.50
2023-02-27T05:09:55.345Z,92236.09
2023-02-27T05:12:30.591Z,92227.22
2023-02-27T05:15:06.969Z,92227.22
2023-02-27T05:17:40.996Z,92229.88
2023-02-27T05:20:12.727Z,92232.81
2023-02-27T05:22:48.693Z,92230.50
2023-02-27T05:25:28.477Z,92230.81
2023-02-27T05:28:04.372Z,92231.88
2023-02-27T05:30:40.897Z,92231.09
2023-02-27T05:33:16.059Z,92232.31
2023-02-27T05:35:51.500Z,92230.97
2023-02-27T05:38:28.340Z,92230.81
2023-02-27T05:41:03.243Z,92235.63
2023-02-27T05:43:36.715Z,92242.91
2023-02-27T05:46:11.885Z,92222.25
2023-02-27T05:48:44.905Z,92240.88
2023-02-27T05:51:16.299Z,92237.66
2023-02-27T05:53:51.389Z,92241.50
2023-02-27T05:56:22.995Z,92239.19
2023-02-27T05:58:56.787Z,92237.31
2023-02-27T06:01:26.705Z,92248.34
2023-02-27T06:03:55.579Z,92237.19
2023-02-27T06:06:24.508Z,92242.91
2023-02-27T06:08:53.003Z,92244.63
2023-02-27T06:11:21.461Z,92244.16
2023-02-27T06:13:49.921Z,92251.63
2023-02-27T06:16:18.664Z,92246.66
2023-02-27T06:18:48.768Z,92257.97
2023-02-27T06:21:17.319Z,92256.13
2023-02-27T06:23:45.789Z,92252.09
2023-02-27T06:26:14.434Z,92256.56
2023-02-27T06:28:43.475Z,92264.94
2023-02-27T06:31:12.266Z,92266.63
2023-02-27T06:33:42.258Z,92269.59
2023-02-27T06:36:12.113Z,92271.09
2023-02-27T06:38:40.583Z,92269.56
2023-02-27T06:41:10.245Z,92276.09
2023-02-27T06:43:38.686Z,92272.97
2023-02-27T06:46:07.534Z,92281.16
2023-02-27T06:48:36.030Z,92283.06
2023-02-27T06:51:05.227Z,92287.97
2023-02-27T06:53:35.080Z,92295.25
2023-02-27T06:56:03.757Z,92289.59
2023-02-27T06:58:32.173Z,92292.09
2023-02-27T07:01:01.140Z,92296.09
2023-02-27T07:03:29.716Z,92297.22
2023-02-27T07:05:58.767Z,92304.50
2023-02-27T07:08:27.374Z,92301.84
2023-02-27T07:10:57.215Z,92301.25
2023-02-27T07:13:25.721Z,92303.88
2023-02-27T07:15:54.348Z,92306.09
2023-02-27T07:18:23.600Z,92311.66
2023-02-27T07:20:55.209Z,92303.16
2023-02-27T07:23:24.098Z,92309.81
2023-02-27T07:25:52.969Z,92313.53
2023-02-27T07:28:22.871Z,92313.00
2023-02-27T07:30:51.400Z,92323.31
2023-02-27T07:33:19.924Z,92321.88
2023-02-27T07:35:48.461Z,92324.41
2023-02-27T07:38:19.025Z,92324.78
2023-02-27T07:40:47.715Z,92328.56
2023-02-27T07:43:16.826Z,92337.06
2023-02-27T07:45:46.800Z,92341.31
2023-02-27T07:48:15.251Z,92336.34
2023-02-27T07:50:43.700Z,92339.00
2023-02-27T07:53:13.457Z,92340.69
2023-02-27T07:55:42.448Z,92336.22
2023-02-27T07:58:11.204Z,92337.16
2023-02-27T08:00:39.698Z,92337.78
2023-02-27T08:03:10.278Z,92340.72
2023-02-27T08:05:38.745Z,92346.16
2023-02-27T08:08:08.246Z,92351.91
2023-02-27T08:10:36.685Z,92341.66
2023-02-27T08:13:05.614Z,92351.91
2023-02-27T08:15:34.139Z,92350.66
2023-02-27T08:18:02.607Z,92355.34
2023-02-27T08:20:32.669Z,92348.94
2023-02-27T08:23:01.116Z,92358.44
2023-02-27T08:25:30.254Z,92368.38
2023-02-27T08:27:59.246Z,92367.13
2023-02-27T08:30:27.939Z,92362.13
2023-02-27T08:32:57.099Z,92370.06
2023-02-27T08:35:25.886Z,92366.22
2023-02-27T08:37:55.951Z,92373.47
2023-02-27T08:40:24.434Z,92369.38
2023-02-27T08:42:53.016Z,92372.66
2023-02-27T08:45:21.488Z,92373.63
2023-02-27T08:47:49.965Z,92376.53
2023-02-27T08:50:18.806Z,92374.50
2023-02-27T08:52:47.249Z,92373.03
2023-02-27T08:55:17.340Z,92370.53
2023-02-27T08:57:45.814Z,92371.69
2023-02-27T09:00:16.517Z,92376.28
2023-02-27T09:02:45.363Z,92373.34
2023-02-27T09:05:14.334Z,92373.06
2023-02-27T09:07:43.371Z,92366.53
2023-02-27T09:10:13.801Z,92373.25
2023-02-27T09:12:44.014Z,92382.09
2023-02-27T09:15:13.289Z,92384.09
2023-02-27T09:17:42.062Z,92385.41
2023-02-27T09:20:12.603Z,92380.47
2023-02-27T09:22:41.276Z,92387.78
2023-02-27T09:25:10.967Z,92384.31
2023-02-27T09:27:39.403Z,92386.56
2023-02-27T09:30:11.822Z,92393.09
2023-02-27T09:32:40.300Z,92392.59
2023-02-27T09:35:10.524Z,92398.22
2023-02-27T09:37:39.439Z,92407.69
2023-02-27T09:40:09.351Z,92395.13
2023-02-27T09:42:45.468Z,92407.88
2023-02-27T09:45:24.787Z,92406.50
2023-02-27T09:47:56.921Z,92413.03
2023-02-27T09:50:41.187Z,92410.63
2023-02-27T09:53:21.347Z,92419.84
2023-02-27T09:55:50.909Z,92412.19
2023-02-27T09:58:34.123Z,92423.22
2023-02-27T10:01:14.890Z,92417.28
2023-02-27T10:04:18.457Z,92435.25
2023-02-27T10:06:52.689Z,92428.16
2023-02-27T10:09:36.434Z,92437.91
2023-02-27T10:12:33.420Z,92433.75
2023-02-27T10:15:08.058Z,92433.63
2023-02-27T10:17:43.648Z,92446.88
2023-02-27T10:20:25.464Z,92439.16
2023-02-27T10:22:55.675Z,92446.59
2023-02-27T10:25:31.747Z,92442.13
2023-02-27T10:28:12.993Z,92453.38
2023-02-27T10:30:42.179Z,92444.06
2023-02-27T10:33:23.118Z,92441.16
2023-02-27T10:35:54.146Z,92440.47
2023-02-27T10:38:33.472Z,92438.03
2023-02-27T10:41:03.446Z,92449.88
2023-02-27T10:43:32.118Z,92451.13
2023-02-27T10:46:03.846Z,92458.63
2023-02-27T10:48:34.875Z,92449.25
2023-02-27T10:51:23.686Z,92459.41
2023-02-27T10:53:53.819Z,92459.13
2023-02-27T10:56:27.849Z,92457.34
2023-02-27T10:59:05.582Z,92468.94
2023-02-27T11:01:45.714Z,92466.91
2023-02-27T11:04:15.903Z,92468.31
2023-02-27T11:06:44.933Z,92478.25
2023-02-27T11:09:22.118Z,92472.47
2023-02-27T11:11:51.373Z,92462.66
2023-02-27T11:14:30.899Z,92463.75
2023-02-27T11:17:01.898Z,92464.28
2023-02-27T11:19:37.455Z,92475.13
2023-02-27T11:22:08.974Z,92467.69
2023-02-27T11:24:37.404Z,92476.44
2023-02-27T11:27:22.070Z,92477.72
2023-02-27T11:30:01.823Z,92473.16
2023-02-27T11:32:41.999Z,92475.41
2023-02-27T11:35:24.740Z,92481.13
2023-02-27T11:37:56.232Z,92465.78
2023-02-27T11:40:31.827Z,92478.44
2023-02-27T11:43:06.263Z,92480.75
2023-02-27T11:46:13.568Z,92490.22
2023-02-27T11:48:33.257Z,92482.31
2023-02-27T11:51:34.384Z,92483.69
2023-02-27T11:54:32.711Z,92480.00
2023-02-27T11:57:05.374Z,92491.00
2023-02-27T11:59:45.775Z,92490.28
2023-02-27T12:02:23.839Z,92491.31
2023-02-27T12:04:56.887Z,92491.91
2023-02-27T12:07:34.117Z,92490.06
2023-02-27T12:10:09.042Z,92507.13
2023-02-27T12:12:48.623Z,92499.06
2023-02-27T12:15:29.067Z,92501.31
2023-02-27T12:18:08.351Z,92495.06
2023-02-27T12:20:48.933Z,92491.09
2023-02-27T12:23:24.750Z,92477.84
2023-02-27T12:26:01.755Z,92485.97
2023-02-27T12:28:44.402Z,92488.31
2023-02-27T12:31:32.410Z,92495.16
2023-02-27T12:34:09.463Z,92493.66
2023-02-27T12:36:38.544Z,92500.91
2023-02-27T12:39:20.410Z,92486.38
2023-02-27T12:42:25.889Z,92496.31
2023-02-27T12:45:24.240Z,92492.63
2023-02-27T12:48:03.373Z,92488.09
2023-02-27T12:50:47.663Z,92495.09
2023-02-27T12:53:33.308Z,92499.56
2023-02-27T12:56:12.849Z,92492.34
2023-02-27T12:58:51.926Z,92503.91
2023-02-27T13:01:35.239Z,92495.88
2023-02-27T13:04:19.029Z,92503.31
2023-02-27T13:06:54.083Z,92497.34
2023-02-27T13:09:35.330Z,92496.69
2023-02-27T13:12:20.966Z,92500.03
2023-02-27T13:14:56.925Z,92495.00
2023-02-27T13:17:33.931Z,92497.50
2023-02-27T13:20:06.930Z,92497.78
2023-02-27T13:22:43.400Z,92500.63
2023-02-27T13:25:16.582Z,92487.69
2023-02-27T13:27:50.510Z,92493.13
2023-02-27T13:30:26.886Z,92487.81
2023-02-27T13:33:07.405Z,92495.75
2023-02-27T13:35:49.339Z,92489.88
2023-02-27T13:38:43.979Z,92496.69
2023-02-27T13:41:40.169Z,92489.88
2023-02-27T13:44:50.322Z,92492.00
2023-02-27T13:47:43.582Z,92492.91
2023-02-27T13:50:52.597Z,92499.34
2023-02-27T13:53:24.597Z,92491.41
2023-02-27T13:55:58.195Z,92501.72
2023-02-27T13:58:26.745Z,92501.38
2023-02-27T14:01:18.300Z,92493.38
2023-02-27T14:03:56.908Z,92499.53
2023-02-27T14:06:27.411Z,92496.69
2023-02-27T14:09:08.895Z,92501.47
2023-02-27T14:11:53.761Z,92497.13
2023-02-27T14:14:47.070Z,92498.34
2023-02-27T14:17:45.127Z,92511.59
2023-02-27T14:20:36.385Z,92514.47
2023-02-27T14:23:21.848Z,92508.16
2023-02-27T14:25:55.776Z,92502.59
2023-02-27T14:28:32.776Z,92513.50
2023-02-27T14:31:04.502Z,92509.22
2023-02-27T14:33:41.866Z,92510.03
2023-02-27T14:36:16.946Z,92506.66
2023-02-27T14:38:45.535Z,92503.72
2023-02-27T14:41:32.863Z,92510.19
2023-02-27T14:44:02.433Z,92508.97
2023-02-27T14:46:33.531Z,92509.47
2023-02-27T14:49:06.662Z,92517.59
2023-02-27T14:51:38.767Z,92521.00
2023-02-27T14:54:14.905Z,92521.75
2023-02-27T14:56:55.302Z,92516.78
2023-02-27T14:59:26.966Z,92512.06
2023-02-27T15:01:59.091Z,92523.84
2023-02-27T15:04:32.800Z,92515.97
2023-02-27T15:07:02.253Z,92506.19
2023-02-27T15:09:37.328Z,92516.84
2023-02-27T15:12:06.858Z,92511.69
2023-02-27T15:14:38.642Z,92524.13
2023-02-27T15:17:17.845Z,92523.66
2023-02-27T15:19:53.648Z,92527.41
2023-02-27T15:22:38.132Z,92522.59
2023-02-27T15:25:08.535Z,92529.78
2023-02-27T15:27:38.336Z,92522.28
2023-02-27T15:30:09.707Z,92531.84
2023-02-27T15:32:43.480Z,92530.50
2023-02-27T15:35:21.650Z,92526.69
2023-02-27T15:37:55.157Z,92530.06
2023-02-27T15:40:28.073Z,92530.75
2023-02-27T15:42:58.016Z,92534.75
2023-02-27T15:45:30.967Z,92532.63
2023-02-27T15:47:59.993Z,92534.94
2023-02-27T15:50:35.396Z,92538.00
2023-02-27T15:53:12.731Z,92533.38
2023-02-27T15:55:44.446Z,92537.47
2023-02-27T15:58:24.569Z,92532.63
2023-02-27T16:01:00.821Z,92532.53
2023-02-27T16:03:35.806Z,92544.19
2023-02-27T16:06:12.407Z,92534.78
2023-02-27T16:08:48.164Z,92542.91
2023-02-27T16:11:20.989Z,92551.34
2023-02-27T16:13:50.616Z,92543.97
2023-02-27T16:16:35.422Z,92550.09
2023-02-27T16:19:18.768Z,92545.75
2023-02-27T16:22:14.579Z,92547.88
2023-02-27T16:24:44.015Z,92546.59
2023-02-27T16:27:20.580Z,92553.13
2023-02-27T16:29:49.426Z,92560.16
2023-02-27T16:32:26.481Z,92566.47
2023-02-27T16:35:03.916Z,92557.19
2023-02-27T16:37:38.237Z,92563.84
2023-02-27T16:40:17.201Z,92565.09
2023-02-27T16:42:46.966Z,92569.78
2023-02-27T16:45:18.583Z,92579.66
2023-02-27T16:47:50.744Z,92581.66
2023-02-27T16:50:25.639Z,92586.09
2023-02-27T16:52:55.678Z,92585.00
2023-02-27T16:55:24.655Z,92585.63
2023-02-27T16:57:53.345Z,92579.09
2023-02-27T17:00:23.641Z,92591.56
2023-02-27T17:02:52.710Z,92588.91
2023-02-27T17:05:21.321Z,92576.19
2023-02-27T17:07:50.026Z,92581.13
2023-02-27T17:10:24.633Z,92588.13
2023-02-27T17:12:53.525Z,92595.28
2023-02-27T17:15:22.335Z,92590.16
2023-02-27T17:17:50.802Z,92604.84
2023-02-27T17:20:19.480Z,92610.63
2023-02-27T17:22:47.894Z,92608.06
2023-02-27T17:25:16.668Z,92607.97
2023-02-27T17:27:46.639Z,92619.00
2023-02-27T17:30:16.288Z,92614.34
2023-02-27T17:32:44.810Z,92613.56
2023-02-27T17:35:13.599Z,92613.25
2023-02-27T17:37:42.113Z,92618.66
2023-02-27T17:40:12.868Z,92626.78
2023-02-27T17:42:41.402Z,92634.91
2023-02-27T17:45:12.710Z,92629.63
2023-02-27T17:47:41.461Z,92634.75
2023-02-27T17:50:11.779Z,92638.31
2023-02-27T17:52:40.819Z,92643.16
2023-02-27T17:55:11.386Z,92641.44
2023-02-27T17:57:41.027Z,92644.09
2023-02-27T18:00:16.175Z,92648.28
2023-02-27T18:02:46.220Z,92657.47
2023-02-27T18:05:15.196Z,92650.16
2023-02-27T18:07:43.667Z,92659.34
2023-02-27T18:10:16.016Z,92659.81
2023-02-27T18:12:44.534Z,92661.53
2023-02-27T18:15:14.389Z,92658.88
2023-02-27T18:17:44.618Z,92663.69
2023-02-27T18:20:14.139Z,92666.81
2023-02-27T18:22:42.569Z,92671.00
2023-02-27T18:25:11.256Z,92674.28
2023-02-27T18:27:40.105Z,92671.97
2023-02-27T18:30:10.336Z,92673.50
2023-02-27T18:32:40.388Z,92671.19
2023-02-27T18:35:10.466Z,92664.03
2023-02-27T18:37:39.156Z,92667.59
2023-02-27T18:40:11.972Z,92663.69
2023-02-27T18:42:40.530Z,92671.47
2023-02-27T18:45:10.654Z,92654.84
2023-02-27T18:47:40.511Z,92662.59
2023-02-27T18:50:10.322Z,92664.00
2023-02-27T18:52:39.292Z,92662.28
2023-02-27T18:55:08.858Z,92665.09
2023-02-27T18:57:37.344Z,92658.41
2023-02-27T19:00:08.560Z,92654.81
2023-02-27T19:02:41.623Z,92659.97
2023-02-27T19:05:14.830Z,92664.50
2023-02-27T19:07:43.733Z,92664.31
2023-02-27T19:10:13.126Z,92658.72
2023-02-27T19:12:42.217Z,92664.00
2023-02-27T19:15:12.400Z,92661.81
2023-02-27T19:17:40.838Z,92667.13
2023-02-27T19:20:16.438Z,92664.63
2023-02-27T19:22:45.639Z,92670.25
2023-02-27T19:25:14.093Z,92672.91
2023-02-27T19:27:44.796Z,92678.19
2023-02-27T19:30:14.563Z,92684.41
2023-02-27T19:32:43.026Z,92674.75
2023-02-27T19:35:15.262Z,92665.72
2023-02-27T19:37:46.873Z,92668.34
2023-02-27T19:40:16.482Z,92670.69
2023-02-27T19:42:45.783Z,92674.72
2023-02-27T19:45:14.455Z,92662.75
2023-02-27T19:47:42.910Z,92668.78
2023-02-27T19:50:14.309Z,92668.34
2023-02-27T19:52:43.083Z,92661.81
2023-02-27T19:55:12.376Z,92665.41
2023-02-27T19:57:40.898Z,92665.88
2023-02-27T20:00:13.140Z,92667.13
2023-02-27T20:02:41.929Z,92672.69
2023-02-27T20:05:12.860Z,92673.16
2023-02-27T20:07:42.666Z,92672.25
2023-02-27T20:10:13.280Z,92672.38
2023-02-27T20:12:41.882Z,92664.28
2023-02-27T20:15:11.980Z,92676.03
2023-02-27T20:17:42.048Z,92667.72
2023-02-27T20:20:13.997Z,92671.59
2023-02-27T20:22:44.653Z,92665.34
2023-02-27T20:25:14.004Z,92668.28
2023-02-27T20:27:42.609Z,92672.59
2023-02-27T20:30:13.186Z,92658.78
2023-02-27T20:32:41.694Z,92671.66
2023-02-27T20:35:12.614Z,92664.28
2023-02-27T20:37:41.138Z,92661.00
2023-02-27T20:40:11.825Z,92653.88
2023-02-27T20:42:40.580Z,92657.28
2023-02-27T20:45:10.297Z,92654.19
2023-02-27T20:47:39.127Z,92651.06
2023-02-27T20:50:09.223Z,92644.84
2023-02-27T20:52:39.058Z,92645.09
2023-02-27T20:55:08.714Z,92639.81
2023-02-27T20:57:37.405Z,92644.66
2023-02-27T21:00:11.322Z,92638.91
2023-02-27T21:02:39.867Z,92643.09
2023-02-27T21:05:09.503Z,92639.59
2023-02-27T21:07:39.319Z,92646.75
2023-02-27T21:10:08.829Z,92633.56
2023-02-27T21:12:37.346Z,92635.38
2023-02-27T21:15:07.437Z,92639.31
2023-02-27T21:17:36.241Z,92630.34
2023-02-27T21:20:06.860Z,92631.97
2023-02-27T21:22:36.435Z,92632.94
2023-02-27T21:25:07.306Z,92632.38
2023-02-27T21:27:35.820Z,92628.81
2023-02-27T21:30:06.060Z,92624.06
2023-02-27T21:32:34.572Z,92620.19
2023-02-27T21:35:03.322Z,92630.16
2023-02-27T21:37:31.770Z,92625.34
2023-02-27T21:40:02.092Z,92619.91
2023-02-27T21:42:32.272Z,92620.00
2023-02-27T21:45:00.720Z,92627.41
2023-02-27T21:47:30.568Z,92622.38
2023-02-27T21:49:59.065Z,92624.16
2023-02-27T21:52:27.764Z,92623.97
2023-02-27T21:54:56.447Z,92623.84
2023-02-27T21:57:25.133Z,92622.41
2023-02-27T21:59:54.981Z,92609.03
2023-02-27T22:02:23.816Z,92621.19
2023-02-27T22:04:52.312Z,92608.91
2023-02-27T22:07:20.821Z,92617.56
2023-02-27T22:09:49.974Z,92609.06
2023-02-27T22:12:19.035Z,92603.78
2023-02-27T22:14:47.684Z,92611.41
2023-02-27T22:17:17.649Z,92606.56
2023-02-27T22:19:46.334Z,92614.38
2023-02-27T22:22:14.850Z,92608.25
2023-02-27T22:24:43.317Z,92616.53
2023-02-27T22:27:11.823Z,92616.84
2023-02-27T22:29:42.273Z,92620.00
2023-02-27T22:32:11.527Z,92615.53
2023-02-27T22:34:41.402Z,92620.84
2023-02-27T22:37:09.864Z,92609.38
2023-02-27T22:39:38.452Z,92588.72
2023-02-27T22:42:07.340Z,92606.00
2023-02-27T22:44:35.998Z,92605.69
2023-02-27T22:47:04.746Z,92601.13
2023-02-27T22:49:33.424Z,92611.41
2023-02-27T22:52:03.241Z,92609.66
2023-02-27T22:54:32.096Z,92605.69
2023-02-27T22:57:00.584Z,92592.44
2023-02-27T22:59:29.537Z,92592.91
2023-02-27T23:01:58.052Z,92596.88
2023-02-27T23:04:27.286Z,92581.41
2023-02-27T23:06:56.743Z,92583.97
2023-02-27T23:09:28.060Z,92602.41
2023-02-27T23:11:57.245Z,92597.44
2023-02-27T23:14:25.693Z,92600.06
2023-02-27T23:16:54.133Z,92603.38
2023-02-27T23:19:24.074Z,92600.00
2023-02-27T23:21:52.759Z,92591.97
2023-02-27T23:24:21.678Z,92600.25
2023-02-27T23:26:53.228Z,92592.94
2023-02-27T23:29:22.048Z,92594.06
2023-02-27T23:31:50.608Z,92590.16
2023-02-27T23:34:19.173Z,92583.75
2023-02-27T23:36:48.142Z,92586.31
2023-02-27T23:39:16.601Z,92592.38
2023-02-27T23:41:45.042Z,92583.97
2023-02-27T23:44:15.087Z,92587.56
2023-02-27T23:46:43.799Z,92588.41
2023-02-27T23:49:13.059Z,92590.56
2023-02-27T23:51:41.738Z,92587.94
2023-02-27T23:54:10.601Z,92592.25
2023-02-27T23:56:39.088Z,92575.72
2023-02-27T23:59:08.734Z,92585.09
